Time;durP1;ratioP1;P1;durP2;ratioP2;P2;SDS_P1;SDS_P2;PMS_P1;PMS_P2;Temp;Humidity;BMP_temperature;BMP_pressure;BME280_temperature;BME280_humidity;BME280_pressure;Samples;Min_cycle;Max_cycle;Signal;HPM_P1;HPM_P2
2024/01/25 00:01:46;;;;;;;13.98;2.28;;;11.20;99.90;;;;;;5093972;28;20049;-77
2024/01/25 00:04:11;;;;;;;11.45;2.38;;;11.20;99.90;;;;;;5093349;28;20016;-79
2024/01/25 00:06:37;;;;;;;8.98;1.95;;;11.20;99.90;;;;;;5094050;28;20028;-77
2024/01/25 00:09:04;;;;;;;15.35;2.67;;;11.20;99.90;;;;;;5093814;28;20020;-77
2024/01/25 00:11:31;;;;;;;14.20;2.45;;;11.30;99.90;;;;;;5093617;28;20224;-78
2024/01/25 00:13:57;;;;;;;13.52;2.30;;;11.20;99.90;;;;;;5093681;28;20020;-77
2024/01/25 00:16:23;;;;;;;12.63;1.88;;;11.30;99.90;;;;;;5093140;28;20176;-78
2024/01/25 00:18:48;;;;;;;11.57;1.98;;;11.20;99.90;;;;;;5093746;28;20044;-77
2024/01/25 00:21:14;;;;;;;13.50;2.08;;;11.20;99.90;;;;;;5093084;28;20030;-78
2024/01/25 00:23:39;;;;;;;12.52;1.77;;;11.20;99.90;;;;;;5094316;28;20503;-79
2024/01/25 00:26:05;;;;;;;12.50;2.15;;;11.20;99.90;;;;;;5093306;28;20034;-78
2024/01/25 00:28:31;;;;;;;12.93;1.95;;;11.20;99.90;;;;;;5093091;28;20028;-77
2024/01/25 00:30:56;;;;;;;14.65;1.77;;;11.20;99.90;;;;;;5093705;28;20030;-78
2024/01/25 00:33:22;;;;;;;11.82;1.80;;;11.20;99.90;;;;;;5093149;28;20027;-78
2024/01/25 00:35:48;;;;;;;11.93;2.10;;;11.30;99.90;;;;;;5093240;28;20035;-78
2024/01/25 00:38:14;;;;;;;10.13;2.15;;;11.30;99.90;;;;;;5092959;28;20024;-80
2024/01/25 00:40:40;;;;;;;12.55;2.17;;;11.20;99.90;;;;;;5093149;28;20107;-78
2024/01/25 00:43:06;;;;;;;15.20;2.40;;;11.30;99.90;;;;;;5093052;28;20048;-78
2024/01/25 00:45:31;;;;;;;11.65;2.08;;;11.20;99.90;;;;;;5092783;28;20121;-77
2024/01/25 00:47:57;;;;;;;14.15;2.67;;;11.20;99.90;;;;;;5092735;28;20449;-77
2024/01/25 00:50:25;;;;;;;16.85;2.38;;;11.20;99.90;;;;;;5092395;28;20483;-77
2024/01/25 00:52:51;;;;;;;12.75;1.95;;;11.20;99.90;;;;;;5093262;28;20024;-77
2024/01/25 00:55:18;;;;;;;13.77;2.10;;;11.20;99.90;;;;;;5092393;28;20080;-77
2024/01/25 00:57:44;;;;;;;8.75;1.80;;;11.20;99.90;;;;;;5092285;28;20413;-77
2024/01/25 01:00:10;;;;;;;10.63;2.17;;;11.20;99.90;;;;;;5092615;28;20107;-80
2024/01/25 01:02:40;;;;;;;13.65;2.42;;;11.30;99.90;;;;;;5075381;28;20461;-77
2024/01/25 01:05:06;;;;;;;17.00;2.42;;;11.30;99.90;;;;;;5092799;28;20359;-77
2024/01/25 01:07:32;;;;;;;11.25;2.00;;;11.30;99.90;;;;;;5091762;28;20111;-77
2024/01/25 01:09:58;;;;;;;13.30;2.13;;;11.30;99.90;;;;;;5092625;28;20048;-77
2024/01/25 01:12:23;;;;;;;14.10;1.92;;;11.30;99.90;;;;;;5093343;28;20055;-78
2024/01/25 01:14:49;;;;;;;18.60;2.53;;;11.30;99.90;;;;;;5092666;28;20027;-77
2024/01/25 01:17:15;;;;;;;14.77;2.00;;;11.20;99.90;;;;;;5091721;28;20038;-84
2024/01/25 01:19:41;;;;;;;13.73;2.05;;;11.20;99.90;;;;;;5092458;28;20077;-78
2024/01/25 01:22:06;;;;;;;12.18;2.30;;;11.30;99.90;;;;;;5092220;28;20020;-77
2024/01/25 01:24:32;;;;;;;10.85;1.90;;;11.30;99.90;;;;;;5091942;28;20050;-77
2024/01/25 01:26:59;;;;;;;15.20;2.55;;;11.30;99.90;;;;;;5092272;28;20035;-77
2024/01/25 01:29:24;;;;;;;11.30;1.98;;;11.30;99.90;;;;;;5091916;28;20028;-76
2024/01/25 01:31:50;;;;;;;16.73;2.15;;;11.20;99.90;;;;;;5092725;28;20342;-78
2024/01/25 01:34:17;;;;;;;14.88;2.25;;;11.20;99.90;;;;;;5092257;28;20021;-83
2024/01/25 01:36:43;;;;;;;15.00;2.17;;;11.20;99.90;;;;;;5092525;28;20534;-77
2024/01/25 01:39:09;;;;;;;13.65;2.70;;;11.20;99.90;;;;;;5092705;28;20024;-77
2024/01/25 01:41:35;;;;;;;11.05;1.95;;;11.20;99.90;;;;;;5092946;28;20566;-78
2024/01/25 01:44:01;;;;;;;14.13;3.05;;;11.20;99.90;;;;;;5095710;28;20069;-77
2024/01/25 01:46:34;;;;;;;15.77;2.72;;;11.20;99.90;;;;;;5095034;28;20024;-77
2024/01/25 01:49:01;;;;;;;11.25;2.08;;;11.20;99.90;;;;;;5095426;28;20509;-77
2024/01/25 01:51:27;;;;;;;10.23;2.10;;;11.20;99.90;;;;;;5112626;28;20074;-77
2024/01/25 01:53:54;;;;;;;19.15;2.63;;;11.20;99.90;;;;;;5095031;28;20016;-77
2024/01/25 01:56:20;;;;;;;17.42;2.30;;;11.20;99.90;;;;;;5094658;28;20167;-77
2024/01/25 01:58:48;;;;;;;15.98;2.47;;;11.20;99.90;;;;;;5095650;28;20028;-77
2024/01/25 02:01:14;;;;;;;14.77;2.05;;;11.20;99.90;;;;;;5097393;28;20031;-81
2024/01/25 02:03:40;;;;;;;12.20;1.83;;;11.20;99.90;;;;;;5099051;28;20019;-77
2024/01/25 02:06:06;;;;;;;13.20;2.80;;;11.20;99.90;;;;;;5099055;28;20118;-77
2024/01/25 02:08:32;;;;;;;18.38;2.58;;;11.20;99.90;;;;;;5116523;28;20027;-77
2024/01/25 02:10:58;;;;;;;12.48;2.20;;;11.20;99.90;;;;;;5117144;28;20353;-77
2024/01/25 02:13:24;;;;;;;25.13;2.70;;;11.20;99.90;;;;;;5098575;28;20016;-78
2024/01/25 02:15:49;;;;;;;12.95;1.63;;;11.20;99.90;;;;;;5099174;28;20026;-77
2024/01/25 02:18:15;;;;;;;22.17;2.92;;;11.20;99.90;;;;;;5098824;28;20173;-80
2024/01/25 02:20:41;;;;;;;17.95;2.78;;;11.20;99.90;;;;;;5116946;28;20042;-77
2024/01/25 02:23:06;;;;;;;11.70;2.55;;;11.20;99.90;;;;;;5099434;28;20065;-77
2024/01/25 02:25:32;;;;;;;10.07;2.10;;;11.20;99.90;;;;;;5116863;28;20444;-78
2024/01/25 02:27:58;;;;;;;11.68;2.30;;;11.10;99.90;;;;;;5098646;28;20364;-78
2024/01/25 02:30:23;;;;;;;15.80;2.20;;;11.10;99.90;;;;;;5098476;28;20038;-78
2024/01/25 02:32:49;;;;;;;21.35;2.47;;;11.20;99.90;;;;;;5098908;28;20022;-78
2024/01/25 02:35:15;;;;;;;18.30;2.30;;;11.10;99.90;;;;;;5117200;28;20401;-77
2024/01/25 02:37:40;;;;;;;14.30;2.30;;;11.10;99.90;;;;;;5098749;28;20066;-77
2024/01/25 02:40:07;;;;;;;10.65;1.90;;;11.10;99.90;;;;;;5098769;28;20476;-77
2024/01/25 02:42:32;;;;;;;11.43;2.05;;;11.10;99.90;;;;;;5098055;28;20100;-78
2024/01/25 02:44:58;;;;;;;16.30;2.35;;;11.10;99.90;;;;;;5116689;28;20019;-77
2024/01/25 02:47:24;;;;;;;10.32;2.35;;;11.20;99.90;;;;;;5098206;28;20019;-77
2024/01/25 02:49:49;;;;;;;16.42;2.88;;;11.20;99.90;;;;;;5098330;28;20114;-77
2024/01/25 02:52:15;;;;;;;11.43;2.00;;;11.10;99.90;;;;;;5098519;28;20030;-77
2024/01/25 02:54:40;;;;;;;18.63;2.65;;;11.20;99.90;;;;;;5098363;28;20028;-77
2024/01/25 02:57:06;;;;;;;16.30;2.25;;;11.20;99.90;;;;;;5098205;28;20388;-77
2024/01/25 02:59:32;;;;;;;15.57;1.92;;;11.10;99.90;;;;;;5097934;28;20076;-77
2024/01/25 03:01:57;;;;;;;11.85;1.60;;;11.20;99.90;;;;;;5098746;28;20023;-77
2024/01/25 03:04:23;;;;;;;12.50;2.05;;;11.20;99.90;;;;;;5097824;28;20066;-79
2024/01/25 03:06:49;;;;;;;15.43;2.30;;;11.20;99.90;;;;;;5098257;28;20478;-78
2024/01/25 03:09:15;;;;;;;11.55;2.22;;;11.20;99.90;;;;;;5098333;28;20019;-77
2024/01/25 03:11:40;;;;;;;15.35;2.67;;;11.20;99.90;;;;;;5097442;28;20114;-78
2024/01/25 03:14:06;;;;;;;13.27;2.00;;;11.10;99.90;;;;;;5098260;28;20016;-78
2024/01/25 03:16:31;;;;;;;13.70;2.47;;;11.10;99.90;;;;;;5097959;28;20023;-77
2024/01/25 03:18:57;;;;;;;21.85;2.78;;;11.10;99.90;;;;;;5116096;28;20379;-77
2024/01/25 03:21:23;;;;;;;7.18;1.80;;;11.10;99.90;;;;;;5115512;28;20016;-79
2024/01/25 03:23:48;;;;;;;14.57;2.53;;;11.10;99.90;;;;;;5097850;28;20471;-78
2024/01/25 03:26:14;;;;;;;14.60;2.22;;;11.10;99.90;;;;;;5097589;28;20614;-78
2024/01/25 03:28:40;;;;;;;13.13;2.00;;;11.10;99.90;;;;;;5097242;28;20028;-78
2024/01/25 03:31:06;;;;;;;13.13;2.40;;;11.10;99.90;;;;;;5097960;28;20440;-78
2024/01/25 03:33:32;;;;;;;12.68;2.65;;;11.10;99.90;;;;;;5097262;28;20087;-78
2024/01/25 03:36:02;;;;;;;13.32;2.22;;;11.10;99.90;;;;;;5097582;28;20051;-77
2024/01/25 03:38:28;;;;;;;18.98;2.90;;;11.10;99.90;;;;;;5097386;28;20068;-78
2024/01/25 03:40:55;;;;;;;13.93;2.00;;;11.10;99.90;;;;;;5097501;28;20015;-78
2024/01/25 03:43:20;;;;;;;13.32;2.47;;;11.00;99.90;;;;;;5097190;28;20469;-81
2024/01/25 03:45:46;;;;;;;16.75;2.42;;;11.00;99.90;;;;;;5097356;28;20024;-78
2024/01/25 03:48:12;;;;;;;13.90;2.13;;;11.00;99.90;;;;;;5115695;28;20077;-78
2024/01/25 03:50:37;;;;;;;20.35;2.47;;;11.00;99.90;;;;;;5097199;28;20025;-77
2024/01/25 03:53:03;;;;;;;11.45;2.28;;;11.00;99.90;;;;;;5097497;28;20364;-78
2024/01/25 03:55:29;;;;;;;19.30;2.22;;;11.00;99.90;;;;;;5097172;28;20028;-79
2024/01/25 03:57:54;;;;;;;11.70;2.15;;;11.00;99.90;;;;;;5097517;28;20028;-78
2024/01/25 04:00:20;;;;;;;17.58;3.08;;;11.10;99.90;;;;;;5097595;28;20051;-77
2024/01/25 04:02:45;;;;;;;14.27;2.20;;;11.00;99.90;;;;;;5097096;28;20030;-77
2024/01/25 04:05:11;;;;;;;13.95;2.22;;;11.00;99.90;;;;;;5097387;28;20449;-78
2024/01/25 04:07:36;;;;;;;18.77;2.15;;;11.00;99.90;;;;;;5096822;28;20023;-78
2024/01/25 04:10:02;;;;;;;16.40;2.50;;;11.00;99.90;;;;;;5115440;28;20035;-77
2024/01/25 04:12:28;;;;;;;19.05;2.30;;;11.00;99.90;;;;;;5096780;28;20019;-78
2024/01/25 04:14:53;;;;;;;12.35;2.22;;;11.00;99.90;;;;;;5097346;28;20023;-78
2024/01/25 04:17:19;;;;;;;13.05;2.25;;;11.00;99.90;;;;;;5097078;28;20023;-77
2024/01/25 04:19:44;;;;;;;18.45;2.60;;;11.00;99.90;;;;;;5096695;28;20592;-77
2024/01/25 04:22:10;;;;;;;10.82;2.05;;;11.00;99.90;;;;;;5096518;28;20019;-77
2024/01/25 04:24:35;;;;;;;13.95;2.00;;;10.90;99.90;;;;;;5095900;28;20165;-78
2024/01/25 04:27:01;;;;;;;17.95;2.50;;;10.90;99.90;;;;;;5097067;28;20386;-77
2024/01/25 04:29:27;;;;;;;14.02;2.63;;;10.90;99.90;;;;;;5114354;28;20023;-79
2024/01/25 04:31:53;;;;;;;13.15;2.03;;;10.90;99.90;;;;;;5097198;28;20019;-77
2024/01/25 04:34:18;;;;;;;8.85;1.92;;;10.90;99.90;;;;;;5096418;28;20030;-78
2024/01/25 04:36:44;;;;;;;16.58;2.33;;;10.90;99.90;;;;;;5096282;28;20023;-77
2024/01/25 04:39:09;;;;;;;19.80;3.15;;;10.90;99.90;;;;;;5114856;28;20107;-78
2024/01/25 04:41:36;;;;;;;12.07;2.40;;;10.90;99.90;;;;;;5096024;28;20462;-77
2024/01/25 04:44:01;;;;;;;15.98;2.42;;;10.90;99.90;;;;;;5096812;28;20114;-77
2024/01/25 04:46:27;;;;;;;15.75;2.20;;;10.90;99.90;;;;;;5114093;28;20022;-82
2024/01/25 04:48:52;;;;;;;12.55;2.20;;;10.90;99.90;;;;;;5096460;28;20115;-77
2024/01/25 04:51:22;;;;;;;12.10;2.17;;;10.90;99.90;;;;;;5096204;28;20019;-77
2024/01/25 04:53:48;;;;;;;13.50;2.00;;;10.90;99.90;;;;;;5113637;28;20028;-77
2024/01/25 04:56:13;;;;;;;13.85;1.83;;;10.80;99.90;;;;;;5095845;28;20026;-77
2024/01/25 04:58:39;;;;;;;13.32;2.55;;;10.80;99.90;;;;;;5113408;28;20059;-77
2024/01/25 05:01:06;;;;;;;16.58;2.47;;;10.80;99.90;;;;;;5095899;28;20376;-77
2024/01/25 05:03:33;;;;;;;10.30;2.28;;;10.70;99.90;;;;;;5095879;28;20016;-77
2024/01/25 05:05:58;;;;;;;14.02;1.95;;;10.70;99.90;;;;;;5096337;28;20023;-77
2024/01/25 05:08:24;;;;;;;14.40;2.08;;;10.60;99.90;;;;;;5095963;28;20023;-77
2024/01/25 05:10:49;;;;;;;13.50;1.92;;;10.60;99.90;;;;;;5095628;28;20020;-77
2024/01/25 05:13:15;;;;;;;15.65;2.53;;;10.60;99.90;;;;;;5096023;28;20367;-77
2024/01/25 05:15:41;;;;;;;16.05;2.42;;;10.50;99.90;;;;;;5113500;28;20037;-77
2024/01/25 05:18:07;;;;;;;18.70;2.03;;;10.50;99.90;;;;;;5096020;28;20363;-77
2024/01/25 05:20:33;;;;;;;10.25;2.35;;;10.50;99.90;;;;;;5095715;28;20019;-78
2024/01/25 05:23:00;;;;;;;11.60;2.80;;;10.50;99.90;;;;;;5095745;28;20114;-78
2024/01/25 05:25:27;;;;;;;10.98;2.47;;;10.40;99.90;;;;;;5095524;28;20030;-84
2024/01/25 05:27:53;;;;;;;12.90;2.40;;;10.40;99.90;;;;;;5095528;28;20127;-78
2024/01/25 05:30:19;;;;;;;16.63;2.45;;;10.40;99.90;;;;;;5096088;28;20059;-78
2024/01/25 05:32:45;;;;;;;14.88;2.70;;;10.30;99.90;;;;;;5095124;28;20458;-78
2024/01/25 05:35:11;;;;;;;15.80;2.55;;;10.20;99.90;;;;;;5113687;28;20107;-78
2024/01/25 05:37:37;;;;;;;16.15;1.95;;;10.20;99.90;;;;;;5095198;28;20118;-78
2024/01/25 05:40:02;;;;;;;15.65;2.40;;;10.20;99.90;;;;;;5096151;28;20453;-78
2024/01/25 05:42:28;;;;;;;15.57;2.45;;;10.20;99.90;;;;;;5095409;28;20080;-82
2024/01/25 05:44:54;;;;;;;13.05;2.00;;;10.20;99.90;;;;;;5095932;28;20512;-78
2024/01/25 05:47:19;;;;;;;10.23;2.10;;;10.20;99.90;;;;;;5095834;28;20076;-77
2024/01/25 05:49:45;;;;;;;13.48;1.88;;;10.10;99.90;;;;;;5095120;28;20020;-77
2024/01/25 05:52:10;;;;;;;13.10;2.10;;;10.10;99.90;;;;;;5095458;28;20093;-77
2024/01/25 05:54:36;;;;;;;15.27;2.67;;;10.10;99.90;;;;;;5095059;28;20012;-77
2024/01/25 05:57:02;;;;;;;14.68;2.90;;;10.10;99.90;;;;;;5113429;28;20084;-77
2024/01/25 05:59:27;;;;;;;15.55;2.25;;;10.00;99.90;;;;;;5095537;28;20031;-80
2024/01/25 06:01:53;;;;;;;14.60;2.22;;;10.00;99.90;;;;;;5095210;28;20020;-77
2024/01/25 06:04:19;;;;;;;11.93;2.20;;;10.00;99.90;;;;;;5095302;28;20395;-78
2024/01/25 06:06:44;;;;;;;16.65;2.70;;;10.00;99.90;;;;;;5094565;28;20110;-77
2024/01/25 06:09:10;;;;;;;13.88;2.20;;;9.90;99.90;;;;;;5094884;28;20026;-77
2024/01/25 06:11:36;;;;;;;14.35;2.42;;;9.80;99.90;;;;;;5094668;28;20061;-78
2024/01/25 06:14:01;;;;;;;18.17;2.78;;;9.80;99.90;;;;;;5095402;28;20454;-77
2024/01/25 06:16:27;;;;;;;15.00;2.50;;;9.80;99.90;;;;;;5095253;28;20024;-77
2024/01/25 06:18:53;;;;;;;15.82;3.15;;;9.80;99.90;;;;;;5094787;28;20028;-77
2024/01/25 06:21:18;;;;;;;15.13;1.90;;;9.80;99.90;;;;;;5095192;28;20020;-78
2024/01/25 06:23:44;;;;;;;13.98;2.55;;;9.80;99.90;;;;;;5113001;28;20084;-78
2024/01/25 06:26:09;;;;;;;17.45;2.38;;;9.80;99.90;;;;;;5095251;28;20020;-78
2024/01/25 06:28:35;;;;;;;14.23;2.40;;;9.80;99.90;;;;;;5094608;28;20487;-79
2024/01/25 06:31:04;;;;;;;17.48;2.63;;;9.80;99.90;;;;;;5095242;28;20030;-79
2024/01/25 06:33:29;;;;;;;15.48;2.58;;;9.80;99.90;;;;;;5094852;28;20026;-78
2024/01/25 06:35:56;;;;;;;12.57;2.35;;;9.80;99.90;;;;;;5094678;28;20031;-77
2024/01/25 06:38:21;;;;;;;14.77;2.03;;;9.70;99.90;;;;;;5094789;28;20031;-77
2024/01/25 06:40:47;;;;;;;11.52;2.50;;;9.70;99.90;;;;;;5094611;28;20031;-78
2024/01/25 06:43:12;;;;;;;23.35;3.20;;;9.70;99.90;;;;;;5091231;28;20047;-78
2024/01/25 06:45:40;;;;;;;13.20;2.30;;;9.60;99.90;;;;;;5091494;28;20364;-79
2024/01/25 06:48:07;;;;;;;17.08;2.40;;;9.60;99.90;;;;;;5095886;28;20024;-78
2024/01/25 06:50:33;;;;;;;14.35;2.38;;;9.60;99.90;;;;;;5094981;28;20506;-82
2024/01/25 06:52:59;;;;;;;15.57;3.15;;;9.60;99.90;;;;;;5095001;28;20532;-77
2024/01/25 06:55:24;;;;;;;20.25;3.45;;;9.60;99.90;;;;;;5095159;28;20055;-81
2024/01/25 06:57:50;;;;;;;16.90;2.95;;;9.60;99.90;;;;;;5094335;28;20043;-80
2024/01/25 07:00:16;;;;;;;10.07;2.00;;;9.60;99.90;;;;;;5096673;28;20111;-79
2024/01/25 07:02:42;;;;;;;19.55;2.35;;;9.50;99.90;;;;;;5095089;28;20020;-80
2024/01/25 07:05:08;;;;;;;22.63;2.67;;;9.50;99.90;;;;;;5095813;28;20036;-79
2024/01/25 07:07:34;;;;;;;16.25;2.33;;;9.50;99.90;;;;;;5095268;28;20069;-81
2024/01/25 07:10:00;;;;;;;16.00;3.47;;;9.50;99.90;;;;;;5095532;28;20020;-79
2024/01/25 07:12:26;;;;;;;11.57;2.28;;;9.50;99.90;;;;;;5095539;28;20090;-79
2024/01/25 07:14:51;;;;;;;18.60;3.35;;;9.50;99.90;;;;;;5095085;28;20201;-79
2024/01/25 07:17:17;;;;;;;16.92;2.88;;;9.50;99.90;;;;;;5095627;28;20035;-79
2024/01/25 07:19:42;;;;;;;21.00;2.60;;;9.40;99.90;;;;;;5094940;28;20408;-79
2024/01/25 07:22:08;;;;;;;17.10;3.03;;;9.40;99.90;;;;;;5096288;28;20016;-79
2024/01/25 07:24:34;;;;;;;20.13;2.85;;;9.40;99.90;;;;;;5094732;28;20027;-81
2024/01/25 07:27:00;;;;;;;18.13;2.70;;;9.40;99.90;;;;;;5095370;28;20354;-79
2024/01/25 07:29:25;;;;;;;15.85;2.40;;;9.40;99.90;;;;;;5095197;28;20055;-79
2024/01/25 07:31:51;;;;;;;10.43;2.35;;;9.40;99.90;;;;;;5095581;28;20402;-79
2024/01/25 07:34:16;;;;;;;16.52;3.72;;;9.40;99.90;;;;;;5095020;28;20027;-79
2024/01/25 07:36:43;;;;;;;17.50;3.83;;;9.40;99.90;;;;;;5094450;28;20047;-79
2024/01/25 07:39:08;;;;;;;12.65;2.50;;;9.40;99.90;;;;;;5094737;28;20059;-78
2024/01/25 07:41:34;;;;;;;22.63;2.80;;;9.40;99.90;;;;;;5094924;28;20027;-83
2024/01/25 07:43:59;;;;;;;20.17;3.10;;;9.40;99.90;;;;;;5098275;28;20028;-76
2024/01/25 07:46:25;;;;;;;14.48;2.53;;;9.30;99.90;;;;;;5097969;28;20033;-78
2024/01/25 07:48:51;;;;;;;13.98;2.90;;;9.30;99.90;;;;;;5115583;28;20449;-78
2024/01/25 07:51:16;;;;;;;19.25;3.05;;;9.30;99.90;;;;;;5097908;28;20066;-79
2024/01/25 07:53:42;;;;;;;14.27;3.08;;;9.30;99.90;;;;;;5115353;28;20051;-78
2024/01/25 07:56:08;;;;;;;18.70;2.47;;;9.20;99.90;;;;;;5097965;28;20020;-78
2024/01/25 07:58:35;;;;;;;17.23;2.35;;;9.20;99.90;;;;;;5096468;28;20080;-77
2024/01/25 08:01:04;;;;;;;16.80;2.90;;;9.20;99.90;;;;;;5097661;28;20352;-79
2024/01/25 08:03:29;;;;;;;18.85;2.80;;;9.20;99.90;;;;;;5097537;28;20024;-79
2024/01/25 08:05:55;;;;;;;18.27;2.47;;;9.20;99.90;;;;;;5097228;28;20035;-79
2024/01/25 08:08:20;;;;;;;16.15;2.65;;;9.20;99.90;;;;;;5097975;28;20020;-79
2024/01/25 08:10:46;;;;;;;14.52;2.15;;;9.20;99.90;;;;;;5096897;28;20514;-79
2024/01/25 08:13:13;;;;;;;17.38;2.53;;;9.20;99.90;;;;;;5097472;28;20114;-79
2024/01/25 08:15:38;;;;;;;12.07;2.65;;;9.20;99.90;;;;;;5097255;28;20073;-80
2024/01/25 08:18:04;;;;;;;15.13;2.97;;;9.20;99.90;;;;;;5097428;28;20040;-79
2024/01/25 08:20:31;;;;;;;13.30;2.47;;;9.30;99.90;;;;;;5097609;28;20043;-80
2024/01/25 08:22:56;;;;;;;11.52;2.30;;;9.30;99.90;;;;;;5114939;28;20024;-80
2024/01/25 08:25:23;;;;;;;20.13;2.40;;;9.30;99.90;;;;;;5097471;28;20072;-80
2024/01/25 08:27:49;;;;;;;14.13;2.53;;;9.30;99.90;;;;;;5115005;28;20023;-79
2024/01/25 08:30:15;;;;;;;9.30;2.38;;;9.30;99.90;;;;;;5097415;28;20027;-79
2024/01/25 08:32:40;;;;;;;19.17;2.63;;;9.30;99.90;;;;;;5096944;28;20019;-81
2024/01/25 08:35:06;;;;;;;12.00;2.30;;;9.30;99.90;;;;;;5114901;28;20027;-81
2024/01/25 08:37:32;;;;;;;10.15;1.95;;;9.30;99.90;;;;;;5096941;28;20445;-79
2024/01/25 08:39:58;;;;;;;9.82;2.60;;;9.40;99.90;;;;;;5096611;28;20027;-81
2024/01/25 08:42:24;;;;;;;10.07;2.10;;;9.40;99.90;;;;;;5097268;28;20499;-81
2024/01/25 08:44:49;;;;;;;9.55;1.77;;;9.40;99.90;;;;;;5097117;28;20023;-81
2024/01/25 08:47:17;;;;;;;8.77;1.70;;;9.40;99.90;;;;;;5097200;28;20039;-81
2024/01/25 08:49:42;;;;;;;8.73;2.15;;;9.40;99.90;;;;;;5096407;28;20026;-79
2024/01/25 08:52:08;;;;;;;9.02;1.85;;;9.40;99.90;;;;;;5096276;28;20110;-80
2024/01/25 08:54:34;;;;;;;12.00;1.73;;;9.50;99.90;;;;;;5096780;28;20023;-81
2024/01/25 08:56:59;;;;;;;9.25;1.80;;;9.50;99.90;;;;;;5114108;28;20112;-80
2024/01/25 08:59:26;;;;;;;7.40;1.85;;;9.50;99.90;;;;;;5096528;28;20372;-79
2024/01/25 09:01:52;;;;;;;11.27;1.75;;;9.50;99.90;;;;;;5114284;28;20027;-79
2024/01/25 09:04:18;;;;;;;10.65;1.80;;;9.50;99.90;;;;;;5114761;28;20016;-79
2024/01/25 09:06:43;;;;;;;6.15;1.85;;;9.50;99.90;;;;;;5096787;28;20064;-83
2024/01/25 09:09:10;;;;;;;9.70;2.05;;;9.50;99.90;;;;;;5096405;28;20020;-82
2024/01/25 09:11:36;;;;;;;10.48;1.77;;;9.50;99.90;;;;;;5096384;28;20077;-81
2024/01/25 09:14:02;;;;;;;11.80;2.40;;;9.60;99.90;;;;;;5095988;28;20452;-81
2024/01/25 09:16:27;;;;;;;8.88;1.85;;;9.60;99.90;;;;;;5096072;28;20024;-83
2024/01/25 09:18:53;;;;;;;16.05;2.17;;;9.70;99.90;;;;;;5096020;28;20027;-80
2024/01/25 09:21:18;;;;;;;10.75;2.00;;;9.70;99.90;;;;;;5096269;28;20018;-84
2024/01/25 09:23:44;;;;;;;9.52;2.72;;;9.80;99.90;;;;;;5095847;28;20020;-80
2024/01/25 09:26:09;;;;;;;9.45;1.70;;;9.90;99.90;;;;;;5095416;28;20034;-80
2024/01/25 09:28:35;;;;;;;14.85;2.17;;;9.90;99.90;;;;;;5112745;28;20028;-87
2024/01/25 09:31:01;;;;;;;9.18;2.10;;;9.90;99.90;;;;;;5112509;28;20027;-81
2024/01/25 09:33:26;;;;;;;10.27;2.53;;;10.00;99.90;;;;;;5076436;28;20102;-80
2024/01/25 09:35:52;;;;;;;12.45;2.00;;;10.00;99.90;;;;;;5074947;28;20027;-83
2024/01/25 09:38:17;;;;;;;11.05;2.67;;;10.00;99.90;;;;;;5093427;28;20032;-85
2024/01/25 09:40:43;;;;;;;13.10;2.63;;;10.00;99.90;;;;;;5074966;28;20465;-83
2024/01/25 09:43:09;;;;;;;9.57;1.70;;;10.10;99.90;;;;;;5075201;28;20044;-80
2024/01/25 09:45:34;;;;;;;11.80;2.20;;;10.10;99.90;;;;;;5080274;28;20024;-83
2024/01/25 09:48:04;;;;;;;9.98;2.15;;;10.10;99.90;;;;;;5094916;28;20035;-83
2024/01/25 09:50:33;;;;;;;12.15;2.40;;;10.10;99.90;;;;;;5096295;28;20043;-85
2024/01/25 09:53:00;;;;;;;11.23;2.05;;;10.10;99.90;;;;;;5095075;28;20016;-82
2024/01/25 09:55:26;;;;;;;11.63;2.13;;;10.10;99.90;;;;;;5113152;28;20028;-81
2024/01/25 09:57:58;;;;;;;11.23;2.33;;;10.10;99.90;;;;;;5094942;28;20040;-81
2024/01/25 10:00:24;;;;;;;;;;;10.10;99.90;;;;;;5095529;28;20023;-84
2024/01/25 10:02:50;;;;;;;13.40;2.50;;;10.10;99.90;;;;;;5099066;28;19995;-82
2024/01/25 10:05:16;;;;;;;12.05;2.40;;;10.10;99.90;;;;;;5075299;28;20032;-82
2024/01/25 10:07:44;;;;;;;12.98;2.22;;;10.10;99.90;;;;;;5108560;28;20512;-81
2024/01/25 10:10:11;;;;;;;20.67;2.28;;;10.10;99.90;;;;;;5095205;28;20073;-83
2024/01/25 10:12:41;;;;;;;10.73;2.22;;;10.20;99.90;;;;;;5095823;28;20050;-82
2024/01/25 10:15:08;;;;;;;12.30;2.08;;;10.20;99.90;;;;;;5113418;28;20016;-80
2024/01/25 10:17:33;;;;;;;16.92;2.38;;;10.20;99.90;;;;;;5095267;28;20114;-83
2024/01/25 10:19:59;;;;;;;9.82;1.90;;;10.30;99.90;;;;;;5094601;28;20106;-80
2024/01/25 10:22:25;;;;;;;14.85;2.33;;;10.30;99.90;;;;;;5097577;28;20188;-83
2024/01/25 10:24:50;;;;;;;18.52;2.17;;;10.30;99.90;;;;;;5098910;28;20073;-83
2024/01/25 10:27:17;;;;;;;15.48;2.50;;;10.30;99.90;;;;;;5099017;28;20024;-86
2024/01/25 10:29:43;;;;;;;14.38;2.42;;;10.30;99.90;;;;;;5098821;28;20513;-83
2024/01/25 10:32:09;;;;;;;11.93;2.53;;;10.30;99.90;;;;;;5117222;28;20028;-80
2024/01/25 10:34:38;;;;;;;11.55;2.15;;;10.30;99.90;;;;;;5117320;28;20015;-82
2024/01/25 10:37:06;;;;;;;12.73;2.20;;;10.30;99.90;;;;;;5098233;28;20475;-81
2024/01/25 10:39:32;;;;;;;22.35;3.05;;;10.40;99.90;;;;;;5116854;28;20023;-84
2024/01/25 10:41:59;;;;;;;17.23;3.17;;;10.50;99.90;;;;;;5099403;28;20085;-82
2024/01/25 10:44:25;;;;;;;12.68;2.45;;;10.50;99.90;;;;;;5116761;28;20024;-82
2024/01/25 10:46:51;;;;;;;13.88;1.70;;;10.50;99.90;;;;;;5109778;28;20480;-81
2024/01/25 10:49:17;;;;;;;12.80;2.08;;;10.60;99.90;;;;;;5107202;28;20104;-80
2024/01/25 10:51:45;;;;;;;18.10;4.05;;;10.70;99.90;;;;;;5102539;28;20130;-83
2024/01/25 10:54:14;;;;;;;14.18;2.45;;;10.70;99.90;;;;;;5115435;28;20020;-85
2024/01/25 10:56:41;;;;;;;13.82;2.15;;;10.90;99.90;;;;;;5102565;28;20040;-82
2024/01/25 10:59:08;;;;;;;16.67;2.92;;;11.00;99.90;;;;;;5107645;28;20024;-79
2024/01/25 11:01:35;;;;;;;12.55;2.35;;;11.10;99.90;;;;;;5106382;28;20506;-82
2024/01/25 11:04:00;;;;;;;18.00;2.17;;;11.20;99.90;;;;;;5111248;28;20023;-80
2024/01/25 11:06:27;;;;;;;11.70;2.20;;;11.20;99.90;;;;;;5100002;28;20379;-77
2024/01/25 11:09:05;;;;;;;15.15;2.97;;;11.10;99.90;;;;;;5108528;28;20106;-79
2024/01/25 11:11:31;;;;;;;9.98;2.10;;;11.00;99.90;;;;;;5116417;28;20023;-79
2024/01/25 11:13:59;;;;;;;15.40;2.30;;;11.00;99.90;;;;;;5116200;28;20068;-79
2024/01/25 11:16:34;;;;;;;10.50;2.03;;;11.00;99.90;;;;;;5113230;28;20051;-79
2024/01/25 11:19:06;;;;;;;14.80;2.40;;;11.00;99.90;;;;;;5115114;28;20016;-78
2024/01/25 11:21:45;;;;;;;10.68;1.90;;;11.20;99.90;;;;;;5115897;28;20030;-77
2024/01/25 11:24:22;;;;;;;15.23;2.00;;;11.30;99.90;;;;;;5115530;28;20026;-82
2024/01/25 11:26:49;;;;;;;10.35;2.53;;;11.30;99.90;;;;;;5105764;28;20026;-77
2024/01/25 11:29:20;;;;;;;19.60;2.42;;;11.40;99.90;;;;;;5115387;28;20085;-78
2024/01/25 11:31:47;;;;;;;17.40;2.43;;;11.50;99.90;;;;;;5114154;28;20416;-78
2024/01/25 11:34:15;;;;;;;15.05;2.28;;;11.40;99.90;;;;;;5096809;28;20339;-78
2024/01/25 11:36:41;;;;;;;9.90;1.90;;;11.50;99.90;;;;;;5096771;28;20035;-79
2024/01/25 11:39:11;;;;;;;16.38;3.25;;;11.40;99.90;;;;;;5096334;28;20015;-76
2024/01/25 11:41:37;;;;;;;11.48;2.15;;;11.40;99.90;;;;;;5108239;28;20031;-77
2024/01/25 11:44:03;;;;;;;10.10;1.85;;;11.50;99.90;;;;;;5096242;28;20024;-77
2024/01/25 11:46:29;;;;;;;14.65;1.92;;;11.60;99.90;;;;;;5096604;28;20059;-77
2024/01/25 11:48:55;;;;;;;16.98;2.40;;;11.80;99.90;;;;;;5096075;28;20028;-77
2024/01/25 11:51:22;;;;;;;11.18;2.50;;;11.90;99.90;;;;;;5096571;28;20023;-77
2024/01/25 11:53:47;;;;;;;13.57;2.08;;;12.00;99.90;;;;;;5114351;28;20368;-77
2024/01/25 11:56:17;;;;;;;13.05;2.40;;;12.10;99.90;;;;;;5096702;28;20024;-80
2024/01/25 11:58:45;;;;;;;10.93;1.85;;;12.10;99.90;;;;;;5076231;28;20031;-79
2024/01/25 12:01:11;;;;;;;8.55;1.80;;;12.10;99.90;;;;;;5075866;28;20469;-79
2024/01/25 12:03:37;;;;;;;9.65;2.03;;;12.10;99.90;;;;;;5096441;28;20387;-78
2024/01/25 12:06:04;;;;;;;14.65;2.58;;;12.20;99.90;;;;;;5114093;28;20032;-77
2024/01/25 12:08:32;;;;;;;10.25;1.98;;;12.20;99.90;;;;;;5114443;28;20357;-77
2024/01/25 12:11:09;;;;;;;14.07;2.25;;;12.30;99.90;;;;;;5114001;28;20065;-76
2024/01/25 12:13:42;;;;;;;12.07;2.10;;;12.30;99.90;;;;;;5096167;28;20360;-74
2024/01/25 12:16:12;;;;;;;9.43;2.10;;;12.50;99.90;;;;;;5095676;28;20028;-75
2024/01/25 12:18:39;;;;;;;13.05;2.10;;;12.50;99.90;;;;;;5114325;28;20023;-77
2024/01/25 12:21:06;;;;;;;11.20;2.03;;;12.50;99.90;;;;;;5094980;28;20214;-75
2024/01/25 12:23:38;;;;;;;13.82;2.17;;;12.50;99.90;;;;;;5096021;28;20020;-75
2024/01/25 12:26:07;;;;;;;9.98;2.50;;;12.50;99.90;;;;;;5095292;28;20020;-75
2024/01/25 12:28:33;;;;;;;13.00;2.60;;;12.60;99.90;;;;;;5095620;28;20039;-75
2024/01/25 12:30:59;;;;;;;5.88;1.70;;;12.60;99.90;;;;;;5113187;28;20019;-75
2024/01/25 12:33:26;;;;;;;13.48;2.28;;;12.80;99.90;;;;;;5095803;28;20411;-75
2024/01/25 12:35:53;;;;;;;10.02;1.75;;;12.80;99.90;;;;;;5095173;28;20028;-76